createdAt,value
2023-05-01T00:02:02.424Z,101758.34
2023-05-01T00:04:29.114Z,101755.22
2023-05-01T00:06:55.888Z,101759.41
2023-05-01T00:09:22.396Z,101752.19
2023-05-01T00:11:48.919Z,101747.03
2023-05-01T00:14:15.644Z,101745.03
2023-05-01T00:16:42.699Z,101740.72
2023-05-01T00:19:09.605Z,101739.91
2023-05-01T00:21:36.127Z,101733.75
2023-05-01T00:24:02.707Z,101738.41
2023-05-01T00:26:31.671Z,101731.84
2023-05-01T00:28:58.429Z,101730.34
2023-05-01T00:31:25.988Z,101718.25
2023-05-01T00:33:52.788Z,101710.19
2023-05-01T00:36:19.612Z,101712.19
2023-05-01T00:38:46.550Z,101707.06
2023-05-01T00:41:13.497Z,101700.25
2023-05-01T00:43:40.396Z,101697.13
2023-05-01T00:46:08.359Z,101695.50
2023-05-01T00:48:35.778Z,101691.53
2023-05-01T00:51:06.152Z,101679.81
2023-05-01T00:53:34.038Z,101674.22
2023-05-01T00:56:00.953Z,101668.59
2023-05-01T00:58:27.851Z,101666.47
2023-05-01T01:00:55.224Z,101655.72
2023-05-01T01:03:21.845Z,101651.94
2023-05-01T01:06:04.134Z,101642.03
2023-05-01T01:08:38.914Z,101638.09
2023-05-01T01:11:12.952Z,101628.81
2023-05-01T01:13:56.131Z,101613.44
2023-05-01T01:16:32.413Z,101605.84
2023-05-01T01:19:31.135Z,101594.94
2023-05-01T01:22:06.974Z,101583.38
2023-05-01T01:24:40.736Z,101576.94
2023-05-01T01:27:36.201Z,101575.47
2023-05-01T01:30:31.894Z,101555.97
2023-05-01T01:33:29.118Z,101557.41
2023-05-01T01:35:58.211Z,101552.81
2023-05-01T01:38:36.434Z,101548.19
2023-05-01T01:41:21.448Z,101533.91
2023-05-01T01:43:58.410Z,101530.31
2023-05-01T01:46:26.235Z,101518.91
2023-05-01T01:48:54.913Z,101514.94
2023-05-01T01:51:22.849Z,101503.06
2023-05-01T01:53:53.798Z,101496.75
2023-05-01T01:56:22.921Z,101494.81
2023-05-01T01:58:52.828Z,101492.47
2023-05-01T02:01:21.212Z,101483.91
2023-05-01T02:03:48.795Z,101485.38
2023-05-01T02:06:17.738Z,101478.94
2023-05-01T02:08:48.757Z,101471.63
2023-05-01T02:11:17.023Z,101463.03
2023-05-01T02:13:46.826Z,101463.69
2023-05-01T02:16:14.905Z,101461.03
2023-05-01T02:18:42.109Z,101461.50
2023-05-01T02:21:11.181Z,101446.78
2023-05-01T02:23:38.932Z,101442.66
2023-05-01T02:26:09.790Z,101435.25
2023-05-01T02:28:41.383Z,101431.94
2023-05-01T02:31:07.977Z,101425.19
2023-05-01T02:33:34.514Z,101426.81
2023-05-01T02:36:01.106Z,101419.41
2023-05-01T02:38:28.837Z,101416.75
2023-05-01T02:40:58.051Z,101407.63
2023-05-01T02:43:26.916Z,101392.38
2023-05-01T02:45:55.140Z,101384.91
2023-05-01T02:48:28.486Z,101366.81
2023-05-01T02:50:57.093Z,101360.50
2023-05-01T02:53:23.798Z,101353.56
2023-05-01T02:55:50.833Z,101351.72
2023-05-01T02:58:18.500Z,101341.28
2023-05-01T03:00:45.727Z,101334.63
2023-05-01T03:03:12.417Z,101326.50
2023-05-01T03:05:39.906Z,101325.69
2023-05-01T03:08:06.842Z,101330.00
2023-05-01T03:10:34.056Z,101322.03
2023-05-01T03:13:01.246Z,101319.72
2023-05-01T03:15:27.904Z,101315.81
2023-05-01T03:17:54.504Z,101319.28
2023-05-01T03:20:21.598Z,101306.47
2023-05-01T03:22:48.137Z,101303.31
2023-05-01T03:25:15.487Z,101308.22
2023-05-01T03:27:42.746Z,101304.56
2023-05-01T03:30:13.268Z,101306.69
2023-05-01T03:32:39.913Z,101305.69
2023-05-01T03:35:08.045Z,101305.69
2023-05-01T03:37:34.920Z,101309.69
2023-05-01T03:40:01.546Z,101305.13
2023-05-01T03:42:28.191Z,101305.84
2023-05-01T03:44:54.849Z,101305.56
2023-05-01T03:47:21.442Z,101308.59
2023-05-01T03:49:48.004Z,101302.16
2023-05-01T03:52:14.640Z,101300.88
2023-05-01T03:54:41.295Z,101297.94
2023-05-01T03:57:08.042Z,101286.88
2023-05-01T03:59:35.432Z,101287.22
2023-05-01T04:02:02.420Z,101270.53
2023-05-01T04:04:30.076Z,101277.19
2023-05-01T04:06:56.830Z,101270.41
2023-05-01T04:09:23.385Z,101261.84
2023-05-01T04:11:49.915Z,101256.72
2023-05-01T04:14:16.419Z,101251.56
2023-05-01T04:16:43.274Z,101239.16
2023-05-01T04:19:10.536Z,101233.88
2023-05-01T04:21:37.418Z,101219.50
2023-05-01T04:24:04.136Z,101229.13
2023-05-01T04:26:30.998Z,101220.16
2023-05-01T04:28:57.497Z,101210.41
2023-05-01T04:31:24.193Z,101208.91
2023-05-01T04:33:50.742Z,101208.91
2023-05-01T04:36:17.318Z,101199.97
2023-05-01T04:38:44.262Z,101196.50
2023-05-01T04:41:10.988Z,101187.72
2023-05-01T04:43:37.560Z,101184.09
2023-05-01T04:46:04.634Z,101178.16
2023-05-01T04:48:31.256Z,101185.06
2023-05-01T04:50:58.449Z,101174.84
2023-05-01T04:53:25.373Z,101168.38
2023-05-01T04:55:51.959Z,101168.03
2023-05-01T04:58:18.643Z,101172.66
2023-05-01T05:00:45.269Z,101176.81
2023-05-01T05:03:11.877Z,101164.34
2023-05-01T05:05:38.564Z,101170.13
2023-05-01T05:08:06.326Z,101158.34
2023-05-01T05:10:32.954Z,101154.69
2023-05-01T05:12:59.676Z,101155.34
2023-05-01T05:15:26.211Z,101143.09
2023-05-01T05:17:53.964Z,101147.19
2023-05-01T05:20:22.569Z,101146.56
2023-05-01T05:22:49.088Z,101142.91
2023-05-01T05:25:16.225Z,101143.09
2023-05-01T05:27:42.752Z,101140.09
2023-05-01T05:30:10.402Z,101131.31
2023-05-01T05:32:37.776Z,101126.47
2023-05-01T05:35:05.814Z,101129.59
2023-05-01T05:37:32.391Z,101130.03
2023-05-01T05:39:58.958Z,101124.00
2023-05-01T05:42:25.544Z,101127.56
2023-05-01T05:44:52.056Z,101126.00
2023-05-01T05:47:18.718Z,101124.69
2023-05-01T05:49:45.173Z,101122.78
2023-05-01T05:52:11.679Z,101111.50
2023-05-01T05:54:38.251Z,101125.91
2023-05-01T05:57:04.905Z,101120.66
2023-05-01T05:59:31.508Z,101123.22
2023-05-01T06:01:58.632Z,101121.25
2023-05-01T06:04:25.325Z,101120.94
2023-05-01T06:06:52.016Z,101129.44
2023-05-01T06:09:19.030Z,101130.13
2023-05-01T06:11:45.994Z,101138.16
2023-05-01T06:14:12.643Z,101150.84
2023-05-01T06:16:39.649Z,101157.84
2023-05-01T06:19:07.835Z,101164.25
2023-05-01T06:21:35.996Z,101174.53
2023-05-01T06:24:02.561Z,101183.38
2023-05-01T06:26:29.105Z,101196.25
2023-05-01T06:28:56.205Z,101205.94
2023-05-01T06:31:22.962Z,101216.00
2023-05-01T06:33:49.731Z,101233.38
2023-05-01T06:36:16.367Z,101241.78
2023-05-01T06:38:48.572Z,101250.78
2023-05-01T06:41:16.359Z,101266.31
2023-05-01T06:43:42.968Z,101268.16
2023-05-01T06:46:09.965Z,101281.88
2023-05-01T06:48:36.931Z,101282.97
2023-05-01T06:51:03.556Z,101298.50
2023-05-01T06:53:30.146Z,101304.28
2023-05-01T06:55:56.727Z,101312.63
2023-05-01T06:58:24.378Z,101312.88
2023-05-01T07:00:52.733Z,101314.91
2023-05-01T07:03:19.484Z,101323.50
2023-05-01T07:05:46.148Z,101327.19
2023-05-01T07:08:12.962Z,101323.13
2023-05-01T07:10:41.931Z,101332.97
2023-05-01T07:13:09.393Z,101336.91
2023-05-01T07:15:36.063Z,101341.28
2023-05-01T07:18:06.177Z,101341.63
2023-05-01T07:20:33.316Z,101350.56
2023-05-01T07:22:59.972Z,101353.16
2023-05-01T07:25:26.711Z,101359.41
2023-05-01T07:27:54.371Z,101369.94
2023-05-01T07:30:21.252Z,101393.31
2023-05-01T07:32:48.609Z,101412.19
2023-05-01T07:35:15.394Z,101415.28
2023-05-01T07:37:41.976Z,101428.41
2023-05-01T07:40:08.756Z,101440.09
2023-05-01T07:42:35.277Z,101439.66
2023-05-01T07:45:02.083Z,101439.44
2023-05-01T07:47:28.893Z,101452.91
2023-05-01T07:49:55.929Z,101448.78
2023-05-01T07:52:22.978Z,101446.91
2023-05-01T07:54:51.086Z,101450.97
2023-05-01T07:57:17.656Z,101459.13
2023-05-01T07:59:44.367Z,101464.66
2023-05-01T08:02:11.050Z,101455.44
2023-05-01T08:04:37.717Z,101460.38
2023-05-01T08:07:04.286Z,101461.44
2023-05-01T08:09:31.180Z,101467.81
2023-05-01T08:11:57.837Z,101470.25
2023-05-01T08:14:24.394Z,101464.78
2023-05-01T08:16:55.547Z,101479.16
2023-05-01T08:19:22.226Z,101480.66
2023-05-01T08:21:49.037Z,101469.69
2023-05-01T08:24:15.779Z,101476.34
2023-05-01T08:26:42.560Z,101482.59
2023-05-01T08:29:10.121Z,101498.66
2023-05-01T08:31:37.998Z,101505.88
2023-05-01T08:34:04.927Z,101518.88
2023-05-01T08:36:32.919Z,101527.72
2023-05-01T08:38:59.472Z,101546.66
2023-05-01T08:41:28.264Z,101557.16
2023-05-01T08:43:57.213Z,101560.03
2023-05-01T08:46:39.088Z,101577.09
2023-05-01T08:49:06.550Z,101584.50
2023-05-01T08:51:34.873Z,101583.47
2023-05-01T08:54:03.674Z,101588.81
2023-05-01T08:56:31.654Z,101599.03
2023-05-01T08:58:59.518Z,101603.97
2023-05-01T09:01:28.241Z,101610.72
2023-05-01T09:03:56.209Z,101608.63
2023-05-01T09:06:23.350Z,101607.34
2023-05-01T09:08:49.911Z,101602.41
2023-05-01T09:11:16.531Z,101611.19
2023-05-01T09:13:43.078Z,101618.47
2023-05-01T09:16:09.722Z,101615.25
2023-05-01T09:18:36.759Z,101628.44
2023-05-01T09:21:03.578Z,101636.97
2023-05-01T09:23:30.294Z,101640.88
2023-05-01T09:25:57.896Z,101644.06
2023-05-01T09:28:47.962Z,101652.19
2023-05-01T09:31:32.957Z,101669.84
2023-05-01T09:34:02.166Z,101682.03
2023-05-01T09:36:33.678Z,101684.91
2023-05-01T09:39:01.889Z,101698.28
2023-05-01T09:41:29.013Z,101700.22
2023-05-01T09:43:59.426Z,101692.38
2023-05-01T09:46:27.112Z,101692.69
2023-05-01T09:49:01.740Z,101692.84
2023-05-01T09:51:33.179Z,101695.91
2023-05-01T09:54:01.966Z,101699.84
2023-05-01T09:56:33.981Z,101693.00
2023-05-01T09:59:21.005Z,101699.53
2023-05-01T10:01:50.219Z,101715.44
2023-05-01T10:04:17.367Z,101713.44
2023-05-01T10:06:44.064Z,101714.94
2023-05-01T10:09:17.767Z,101721.72
2023-05-01T10:11:52.359Z,101729.84
2023-05-01T10:14:20.371Z,101725.31
2023-05-01T10:16:47.421Z,101733.94
2023-05-01T10:19:16.849Z,101732.94
2023-05-01T10:21:43.489Z,101733.69
2023-05-01T10:24:11.192Z,101735.59
2023-05-01T10:26:37.956Z,101736.72
2023-05-01T10:29:04.820Z,101733.53
2023-05-01T10:31:33.581Z,101746.97
2023-05-01T10:34:03.774Z,101748.75
2023-05-01T10:36:40.062Z,101745.94
2023-05-01T10:39:07.188Z,101746.69
2023-05-01T10:41:58.425Z,101750.78
2023-05-01T10:44:27.254Z,101747.88
2023-05-01T10:46:54.614Z,101757.13
2023-05-01T10:49:21.646Z,101754.84
2023-05-01T10:52:01.090Z,101759.78
2023-05-01T10:54:33.807Z,101756.28
2023-05-01T10:57:03.651Z,101762.16
2023-05-01T11:00:04.103Z,101758.09
2023-05-01T11:02:30.973Z,101762.00
2023-05-01T11:04:57.726Z,101757.94
2023-05-01T11:07:25.334Z,101760.88
2023-05-01T11:10:03.106Z,101754.97
2023-05-01T11:12:51.493Z,101759.69
2023-05-01T11:15:30.628Z,101757.06
2023-05-01T11:17:58.457Z,101752.63
2023-05-01T11:20:24.914Z,101750.25
2023-05-01T11:22:56.445Z,101753.44
2023-05-01T11:25:28.068Z,101757.81
2023-05-01T11:27:59.751Z,101764.28
2023-05-01T11:30:26.310Z,101756.06
2023-05-01T11:32:53.206Z,101759.59
2023-05-01T11:35:20.520Z,101771.03
2023-05-01T11:37:48.542Z,101766.84
2023-05-01T11:40:26.237Z,101765.31
2023-05-01T11:43:07.796Z,101763.91
2023-05-01T11:45:36.503Z,101765.47
2023-05-01T11:48:04.844Z,101763.66
2023-05-01T11:50:36.578Z,101765.59
2023-05-01T11:53:04.778Z,101753.81
2023-05-01T11:55:32.474Z,101759.38
2023-05-01T11:57:59.395Z,101759.31
2023-05-01T12:00:31.007Z,101756.28
2023-05-01T12:02:59.907Z,101767.53
2023-05-01T12:05:28.573Z,101753.94
2023-05-01T12:08:21.265Z,101759.09
2023-05-01T12:10:52.850Z,101759.00
2023-05-01T12:13:20.816Z,101755.84
2023-05-01T12:15:49.905Z,101759.28
2023-05-01T12:18:17.975Z,101761.16
2023-05-01T12:20:47.849Z,101756.59
2023-05-01T12:23:16.544Z,101757.22
2023-05-01T12:25:44.945Z,101763.88
2023-05-01T12:28:20.046Z,101755.81
2023-05-01T12:30:49.370Z,101764.72
2023-05-01T12:33:20.737Z,101758.38
2023-05-01T12:35:49.525Z,101765.13
2023-05-01T12:38:18.385Z,101758.03
2023-05-01T12:40:59.981Z,101758.66
2023-05-01T12:43:34.804Z,101761.81
2023-05-01T12:46:03.246Z,101762.75
2023-05-01T12:48:31.667Z,101760.69
2023-05-01T12:51:01.025Z,101752.47
2023-05-01T12:53:29.633Z,101762.28
2023-05-01T12:55:59.511Z,101755.13
2023-05-01T12:58:37.117Z,101757.97
2023-05-01T13:01:04.320Z,101764.06
2023-05-01T13:03:31.549Z,101768.63
2023-05-01T13:06:03.197Z,101762.16
2023-05-01T13:08:32.213Z,101762.47
2023-05-01T13:11:10.269Z,101766.56
2023-05-01T13:13:37.704Z,101764.25
2023-05-01T13:16:25.054Z,101764.03
2023-05-01T13:18:53.658Z,101767.06
2023-05-01T13:21:22.384Z,101766.25
2023-05-01T13:23:56.935Z,101768.06
2023-05-01T13:26:28.416Z,101771.03
2023-05-01T13:28:55.613Z,101768.53
2023-05-01T13:31:22.227Z,101757.81
2023-05-01T13:33:51.950Z,101774.03
2023-05-01T13:36:26.064Z,101770.94
2023-05-01T13:38:56.478Z,101770.88
2023-05-01T13:41:28.035Z,101772.16
2023-05-01T13:43:56.319Z,101777.16
2023-05-01T13:46:25.020Z,101769.97
2023-05-01T13:48:52.204Z,101771.13
2023-05-01T13:51:27.225Z,101784.59
2023-05-01T13:53:56.285Z,101779.31
2023-05-01T13:56:22.998Z,101780.84
2023-05-01T13:58:50.896Z,101789.88
2023-05-01T14:01:22.476Z,101792.72
2023-05-01T14:03:49.957Z,101786.25
2023-05-01T14:06:19.463Z,101787.38
2023-05-01T14:08:47.997Z,101785.41
2023-05-01T14:11:15.475Z,101788.91
2023-05-01T14:13:47.059Z,101787.44
2023-05-01T14:16:25.757Z,101789.75
2023-05-01T14:18:57.652Z,101799.75
2023-05-01T14:21:27.388Z,101801.13
2023-05-01T14:23:55.183Z,101804.09
2023-05-01T14:26:24.120Z,101792.50
2023-05-01T14:28:50.898Z,101797.47
2023-05-01T14:31:24.217Z,101797.50
2023-05-01T14:33:55.685Z,101796.88
2023-05-01T14:36:22.495Z,101794.28
2023-05-01T14:38:49.301Z,101798.66
2023-05-01T14:41:19.685Z,101796.13
2023-05-01T14:43:46.447Z,101794.19
2023-05-01T14:46:14.861Z,101791.66
2023-05-01T14:48:42.278Z,101789.06
2023-05-01T14:51:12.791Z,101798.41
2023-05-01T14:53:42.737Z,101795.34
2023-05-01T14:56:09.561Z,101789.66
2023-05-01T14:58:36.395Z,101793.22
2023-05-01T15:01:03.062Z,101801.84
2023-05-01T15:03:30.114Z,101799.38
2023-05-01T15:05:57.477Z,101800.00
2023-05-01T15:08:24.399Z,101798.66
2023-05-01T15:10:53.962Z,101797.59
2023-05-01T15:13:21.421Z,101798.28
2023-05-01T15:15:48.200Z,101806.00
2023-05-01T15:18:15.002Z,101795.66
2023-05-01T15:20:41.618Z,101797.69
2023-05-01T15:23:08.186Z,101798.44
2023-05-01T15:25:34.658Z,101796.16
2023-05-01T15:28:01.136Z,101792.22
2023-05-01T15:30:27.837Z,101799.34
2023-05-01T15:32:55.816Z,101797.59
2023-05-01T15:35:23.736Z,101798.50
2023-05-01T15:37:50.713Z,101797.56
2023-05-01T15:40:17.347Z,101800.56
2023-05-01T15:42:45.544Z,101796.78
2023-05-01T15:45:12.012Z,101809.75
2023-05-01T15:47:38.712Z,101811.31
2023-05-01T15:50:09.616Z,101803.31
2023-05-01T15:52:36.191Z,101809.97
2023-05-01T15:55:02.899Z,101805.59
2023-05-01T15:57:30.978Z,101808.34
2023-05-01T15:59:57.758Z,101812.34
2023-05-01T16:02:27.196Z,101816.72
2023-05-01T16:04:54.099Z,101827.06
2023-05-01T16:07:21.696Z,101823.97
2023-05-01T16:09:48.190Z,101816.00
2023-05-01T16:12:14.818Z,101824.16
2023-05-01T16:14:42.194Z,101820.22
2023-05-01T16:17:09.040Z,101833.28
2023-05-01T16:19:37.017Z,101827.56
2023-05-01T16:22:04.732Z,101822.69
2023-05-01T16:24:35.321Z,101821.66
2023-05-01T16:27:02.567Z,101820.22
2023-05-01T16:29:29.054Z,101823.31
2023-05-01T16:31:55.678Z,101816.69
2023-05-01T16:34:25.608Z,101817.75
2023-05-01T16:36:53.056Z,101821.00
2023-05-01T16:39:22.033Z,101831.28
2023-05-01T16:41:50.968Z,101829.41
2023-05-01T16:44:19.708Z,101828.41
2023-05-01T16:46:57.378Z,101831.28
2023-05-01T16:49:27.109Z,101832.88
2023-05-01T16:51:57.436Z,101828.97
2023-05-01T16:54:25.126Z,101828.75
2023-05-01T16:56:51.973Z,101836.53
2023-05-01T16:59:18.653Z,101841.84
2023-05-01T17:01:45.278Z,101845.31
2023-05-01T17:04:13.338Z,101835.44
2023-05-01T17:06:39.975Z,101835.97
2023-05-01T17:09:06.593Z,101844.75
2023-05-01T17:11:33.117Z,101852.84
2023-05-01T17:13:59.717Z,101856.78
2023-05-01T17:16:26.253Z,101844.00
2023-05-01T17:18:52.965Z,101852.63
2023-05-01T17:21:19.637Z,101850.84
2023-05-01T17:23:46.156Z,101846.56
2023-05-01T17:26:15.923Z,101845.28
2023-05-01T17:28:42.464Z,101847.53
2023-05-01T17:31:09.411Z,101843.56
2023-05-01T17:33:36.185Z,101840.84
2023-05-01T17:36:02.984Z,101841.97
2023-05-01T17:38:29.505Z,101832.88
2023-05-01T17:40:56.011Z,101830.16
2023-05-01T17:43:22.629Z,101824.56
2023-05-01T17:45:50.154Z,101827.38
2023-05-01T17:48:17.200Z,101827.72
2023-05-01T17:50:43.754Z,101823.78
2023-05-01T17:53:10.827Z,101823.66
2023-05-01T17:55:38.934Z,101825.06
2023-05-01T17:58:06.987Z,101827.56
2023-05-01T18:00:33.750Z,101826.03
2023-05-01T18:03:00.553Z,101829.78
2023-05-01T18:05:27.352Z,101824.31
2023-05-01T18:07:53.870Z,101818.63
2023-05-01T18:10:20.692Z,101818.09
2023-05-01T18:12:49.832Z,101806.34
2023-05-01T18:15:22.028Z,101810.00
2023-05-01T18:17:49.609Z,101807.34
2023-05-01T18:20:16.304Z,101814.31
2023-05-01T18:22:43.011Z,101810.91
2023-05-01T18:25:09.671Z,101807.81
2023-05-01T18:27:38.183Z,101803.47
2023-05-01T18:30:05.333Z,101799.88
2023-05-01T18:32:46.320Z,101796.09
2023-05-01T18:35:15.213Z,101796.34
2023-05-01T18:37:42.550Z,101789.19
2023-05-01T18:40:17.073Z,101784.00
2023-05-01T18:42:43.637Z,101787.38
2023-05-01T18:45:10.498Z,101775.38
2023-05-01T18:47:37.143Z,101777.16
2023-05-01T18:50:05.008Z,101775.91
2023-05-01T18:52:31.520Z,101765.50
2023-05-01T18:54:58.077Z,101761.91
2023-05-01T18:57:24.557Z,101763.44
2023-05-01T18:59:51.027Z,101762.50
2023-05-01T19:02:17.522Z,101761.19
2023-05-01T19:04:56.940Z,101754.28
2023-05-01T19:07:26.274Z,101749.84
2023-05-01T19:09:53.026Z,101747.59
2023-05-01T19:12:19.495Z,101739.13
2023-05-01T19:14:46.096Z,101736.34
2023-05-01T19:17:12.625Z,101732.72
2023-05-01T19:19:39.169Z,101730.28
2023-05-01T19:22:06.348Z,101734.41
2023-05-01T19:24:32.971Z,101723.50
2023-05-01T19:26:59.485Z,101712.25
2023-05-01T19:29:26.039Z,101716.22
2023-05-01T19:31:52.631Z,101717.75
2023-05-01T19:34:20.733Z,101710.13
2023-05-01T19:36:47.221Z,101701.69
2023-05-01T19:39:14.056Z,101702.34
2023-05-01T19:41:40.655Z,101704.84
2023-05-01T19:44:07.995Z,101700.06
2023-05-01T19:46:34.506Z,101698.91
2023-05-01T19:49:01.049Z,101694.78
2023-05-01T19:51:28.270Z,101696.59
2023-05-01T19:53:54.746Z,101696.94
2023-05-01T19:56:21.259Z,101699.75
2023-05-01T19:58:47.726Z,101687.16
2023-05-01T20:01:14.523Z,101680.53
2023-05-01T20:03:41.305Z,101678.50
2023-05-01T20:06:08.014Z,101677.22
2023-05-01T20:08:34.763Z,101677.72
2023-05-01T20:11:01.854Z,101670.25
2023-05-01T20:13:28.424Z,101671.41
2023-05-01T20:15:55.345Z,101659.50
2023-05-01T20:18:22.268Z,101653.22
2023-05-01T20:20:48.984Z,101654.72
2023-05-01T20:23:17.460Z,101650.25
2023-05-01T20:25:45.426Z,101638.16
2023-05-01T20:28:14.888Z,101640.16
2023-05-01T20:30:43.692Z,101635.03
2023-05-01T20:33:11.320Z,101631.88
2023-05-01T20:35:39.548Z,101635.81
2023-05-01T20:38:06.263Z,101629.88
2023-05-01T20:40:33.737Z,101634.81
2023-05-01T20:43:00.870Z,101634.81
2023-05-01T20:45:31.541Z,101622.41
2023-05-01T20:48:01.792Z,101633.78
2023-05-01T20:50:28.487Z,101623.84
2023-05-01T20:52:56.396Z,101623.84
2023-05-01T20:55:23.978Z,101623.81
2023-05-01T20:57:50.703Z,101623.47
2023-05-01T21:00:17.429Z,101617.31
2023-05-01T21:02:44.254Z,101617.25
2023-05-01T21:05:11.283Z,101615.78
2023-05-01T21:07:39.411Z,101611.34
2023-05-01T21:10:10.311Z,101613.78
2023-05-01T21:12:37.410Z,101610.97
2023-05-01T21:15:04.498Z,101608.97
2023-05-01T21:17:33.617Z,101595.78
2023-05-01T21:20:00.485Z,101595.16
2023-05-01T21:22:27.776Z,101582.31
2023-05-01T21:24:56.493Z,101583.63
2023-05-01T21:27:24.748Z,101575.41
2023-05-01T21:29:56.358Z,101561.53
2023-05-01T21:32:34.298Z,101554.44
2023-05-01T21:35:01.470Z,101541.91
2023-05-01T21:37:29.225Z,101541.06
2023-05-01T21:39:59.406Z,101536.28
2023-05-01T21:42:35.912Z,101530.16
2023-05-01T21:45:11.059Z,101533.06
2023-05-01T21:47:39.421Z,101528.78
2023-05-01T21:50:07.588Z,101523.00
2023-05-01T21:52:37.125Z,101512.28
2023-05-01T21:55:09.267Z,101500.69
2023-05-01T21:57:37.019Z,101495.75
2023-05-01T22:00:05.547Z,101496.56
2023-05-01T22:02:38.536Z,101487.97
2023-05-01T22:05:06.374Z,101483.38
2023-05-01T22:07:33.480Z,101471.97
2023-05-01T22:10:01.367Z,101468.81
2023-05-01T22:12:28.195Z,101450.34
2023-05-01T22:14:55.112Z,101441.91
2023-05-01T22:17:24.516Z,101430.41
2023-05-01T22:19:51.658Z,101421.97
2023-05-01T22:22:19.296Z,101405.81
2023-05-01T22:24:46.261Z,101394.59
2023-05-01T22:27:12.800Z,101368.69
2023-05-01T22:29:39.294Z,101352.03
2023-05-01T22:32:05.954Z,101349.88
2023-05-01T22:34:32.559Z,101341.28
2023-05-01T22:36:59.123Z,101330.06
2023-05-01T22:39:25.991Z,101322.81
2023-05-01T22:41:52.583Z,101313.22
2023-05-01T22:44:21.636Z,101320.97
2023-05-01T22:46:48.872Z,101308.78
2023-05-01T22:49:15.436Z,101306.47
2023-05-01T22:51:41.963Z,101289.81
2023-05-01T22:54:08.458Z,101283.56
2023-05-01T22:56:34.987Z,101252.00
2023-05-01T22:59:01.514Z,101232.19
2023-05-01T23:01:28.226Z,101210.50
2023-05-01T23:03:55.735Z,101194.97
2023-05-01T23:06:22.360Z,101183.56
2023-05-01T23:08:53.528Z,101180.25
2023-05-01T23:11:21.241Z,101178.25
2023-05-01T23:13:50.157Z,101164.38
2023-05-01T23:16:17.230Z,101154.75
2023-05-01T23:18:44.601Z,101135.19
2023-05-01T23:21:13.282Z,101119.47
2023-05-01T23:23:44.633Z,101107.00
2023-05-01T23:26:20.013Z,101092.56
2023-05-01T23:28:46.707Z,101072.69
2023-05-01T23:31:20.875Z,101058.06
2023-05-01T23:33:47.375Z,101048.59
2023-05-01T23:36:14.059Z,101048.22
2023-05-01T23:38:40.915Z,101048.22
2023-05-01T23:41:07.955Z,101042.81
2023-05-01T23:43:35.066Z,101057.75
2023-05-01T23:46:05.093Z,101051.25
2023-05-01T23:48:33.374Z,101061.09
2023-05-01T23:51:00.603Z,101064.31
2023-05-01T23:53:27.173Z,101060.53
2023-05-01T23:55:53.758Z,101057.34
2023-05-01T23:58:20.310Z,101067.50
